sensor_id;sensor_type;location;lat;lon;timestamp;P1;durP1;ratioP1;P2;durP2;ratioP2
69305;SDS011;56427;51.580;4.656;2023-07-29T00:02:01;6.07;;;3.50;;
69305;SDS011;56427;51.580;4.656;2023-07-29T00:04:26;7.87;;;4.03;;
69305;SDS011;56427;51.580;4.656;2023-07-29T00:06:53;6.30;;;3.17;;
69305;SDS011;56427;51.580;4.656;2023-07-29T00:09:19;6.10;;;2.90;;
69305;SDS011;56427;51.580;4.656;2023-07-29T00:11:44;5.95;;;3.10;;
69305;SDS011;56427;51.580;4.656;2023-07-29T00:14:09;5.83;;;2.90;;
69305;SDS011;56427;51.580;4.656;2023-07-29T00:16:37;6.27;;;2.60;;
69305;SDS011;56427;51.580;4.656;2023-07-29T00:19:02;6.03;;;2.60;;
69305;SDS011;56427;51.580;4.656;2023-07-29T00:21:28;8.77;;;3.70;;
69305;SDS011;56427;51.580;4.656;2023-07-29T00:23:54;9.43;;;3.77;;
69305;SDS011;56427;51.580;4.656;2023-07-29T00:26:22;10.85;;;3.38;;
69305;SDS011;56427;51.580;4.656;2023-07-29T00:28:47;10.20;;;4.23;;
69305;SDS011;56427;51.580;4.656;2023-07-29T00:31:13;10.83;;;4.57;;
69305;SDS011;56427;51.580;4.656;2023-07-29T00:33:38;13.32;;;4.55;;
69305;SDS011;56427;51.580;4.656;2023-07-29T00:36:04;18.30;;;6.70;;
69305;SDS011;56427;51.580;4.656;2023-07-29T00:38:30;17.87;;;6.93;;
69305;SDS011;56427;51.580;4.656;2023-07-29T00:40:56;10.37;;;4.30;;
69305;SDS011;56427;51.580;4.656;2023-07-29T00:43:22;9.77;;;4.03;;
69305;SDS011;56427;51.580;4.656;2023-07-29T00:45:47;7.80;;;3.40;;
69305;SDS011;56427;51.580;4.656;2023-07-29T00:48:13;8.53;;;3.60;;
69305;SDS011;56427;51.580;4.656;2023-07-29T00:50:39;7.93;;;3.45;;
69305;SDS011;56427;51.580;4.656;2023-07-29T00:53:05;9.38;;;3.42;;
69305;SDS011;56427;51.580;4.656;2023-07-29T00:55:32;9.53;;;3.90;;
69305;SDS011;56427;51.580;4.656;2023-07-29T00:57:57;10.07;;;4.10;;
69305;SDS011;56427;51.580;4.656;2023-07-29T01:00:23;7.17;;;3.10;;
69305;SDS011;56427;51.580;4.656;2023-07-29T01:02:49;5.05;;;2.65;;
69305;SDS011;56427;51.580;4.656;2023-07-29T01:05:16;6.15;;;2.88;;
69305;SDS011;56427;51.580;4.656;2023-07-29T01:07:51;5.27;;;2.73;;
69305;SDS011;56427;51.580;4.656;2023-07-29T01:10:30;5.85;;;2.58;;
69305;SDS011;56427;51.580;4.656;2023-07-29T01:15:47;5.45;;;2.42;;
69305;SDS011;56427;51.580;4.656;2023-07-29T01:18:30;9.75;;;2.50;;
69305;SDS011;56427;51.580;4.656;2023-07-29T01:20:59;5.20;;;2.40;;
69305;SDS011;56427;51.580;4.656;2023-07-29T01:23:32;5.93;;;2.70;;
69305;SDS011;56427;51.580;4.656;2023-07-29T01:25:59;4.88;;;2.10;;
69305;SDS011;56427;51.580;4.656;2023-07-29T01:28:25;5.72;;;2.50;;
69305;SDS011;56427;51.580;4.656;2023-07-29T01:31:02;6.67;;;2.10;;
69305;SDS011;56427;51.580;4.656;2023-07-29T01:33:39;4.28;;;2.10;;
69305;SDS011;56427;51.580;4.656;2023-07-29T01:36:10;6.97;;;2.20;;
69305;SDS011;56427;51.580;4.656;2023-07-29T01:38:40;4.07;;;2.35;;
69305;SDS011;56427;51.580;4.656;2023-07-29T01:41:08;3.95;;;2.30;;
69305;SDS011;56427;51.580;4.656;2023-07-29T01:43:34;9.80;;;2.70;;
69305;SDS011;56427;51.580;4.656;2023-07-29T01:46:10;4.47;;;1.90;;
69305;SDS011;56427;51.580;4.656;2023-07-29T01:48:37;4.88;;;2.45;;
69305;SDS011;56427;51.580;4.656;2023-07-29T01:51:02;4.73;;;1.80;;
69305;SDS011;56427;51.580;4.656;2023-07-29T01:53:30;4.35;;;2.28;;
69305;SDS011;56427;51.580;4.656;2023-07-29T01:55:57;6.00;;;2.60;;
69305;SDS011;56427;51.580;4.656;2023-07-29T01:58:23;4.20;;;2.00;;
69305;SDS011;56427;51.580;4.656;2023-07-29T02:00:49;4.65;;;2.10;;
69305;SDS011;56427;51.580;4.656;2023-07-29T02:03:14;6.83;;;2.07;;
69305;SDS011;56427;51.580;4.656;2023-07-29T02:05:39;3.65;;;1.92;;
69305;SDS011;56427;51.580;4.656;2023-07-29T02:08:11;5.07;;;1.93;;
69305;SDS011;56427;51.580;4.656;2023-07-29T02:10:37;5.25;;;2.17;;
69305;SDS011;56427;51.580;4.656;2023-07-29T02:13:03;5.87;;;2.27;;
69305;SDS011;56427;51.580;4.656;2023-07-29T02:15:29;5.13;;;2.08;;
69305;SDS011;56427;51.580;4.656;2023-07-29T02:17:55;5.47;;;1.70;;
69305;SDS011;56427;51.580;4.656;2023-07-29T02:20:20;3.50;;;2.10;;
69305;SDS011;56427;51.580;4.656;2023-07-29T02:22:46;3.53;;;1.80;;
69305;SDS011;56427;51.580;4.656;2023-07-29T02:25:13;4.00;;;1.50;;
69305;SDS011;56427;51.580;4.656;2023-07-29T02:27:40;5.35;;;1.98;;
69305;SDS011;56427;51.580;4.656;2023-07-29T02:30:06;4.60;;;1.70;;
69305;SDS011;56427;51.580;4.656;2023-07-29T02:32:34;3.78;;;2.20;;
69305;SDS011;56427;51.580;4.656;2023-07-29T02:35:00;5.30;;;2.23;;
69305;SDS011;56427;51.580;4.656;2023-07-29T02:37:26;4.77;;;2.30;;
69305;SDS011;56427;51.580;4.656;2023-07-29T02:39:52;4.45;;;2.70;;
69305;SDS011;56427;51.580;4.656;2023-07-29T02:42:17;7.23;;;3.03;;
69305;SDS011;56427;51.580;4.656;2023-07-29T02:44:43;6.23;;;2.90;;
69305;SDS011;56427;51.580;4.656;2023-07-29T02:47:08;4.57;;;2.45;;
69305;SDS011;56427;51.580;4.656;2023-07-29T02:49:34;5.53;;;2.93;;
69305;SDS011;56427;51.580;4.656;2023-07-29T02:51:59;5.93;;;3.20;;
69305;SDS011;56427;51.580;4.656;2023-07-29T02:54:24;5.80;;;3.10;;
69305;SDS011;56427;51.580;4.656;2023-07-29T02:56:52;5.28;;;2.85;;
69305;SDS011;56427;51.580;4.656;2023-07-29T02:59:18;8.97;;;3.60;;
69305;SDS011;56427;51.580;4.656;2023-07-29T03:01:44;7.10;;;3.30;;
69305;SDS011;56427;51.580;4.656;2023-07-29T03:04:10;6.60;;;3.65;;
69305;SDS011;56427;51.580;4.656;2023-07-29T03:06:38;5.53;;;3.20;;
69305;SDS011;56427;51.580;4.656;2023-07-29T03:09:03;6.32;;;3.63;;
69305;SDS011;56427;51.580;4.656;2023-07-29T03:11:30;7.15;;;3.30;;
69305;SDS011;56427;51.580;4.656;2023-07-29T03:13:56;5.97;;;3.50;;
69305;SDS011;56427;51.580;4.656;2023-07-29T03:16:22;7.57;;;3.30;;
69305;SDS011;56427;51.580;4.656;2023-07-29T03:18:47;8.65;;;3.53;;
69305;SDS011;56427;51.580;4.656;2023-07-29T03:21:13;8.37;;;3.33;;
69305;SDS011;56427;51.580;4.656;2023-07-29T03:23:39;8.43;;;3.30;;
69305;SDS011;56427;51.580;4.656;2023-07-29T03:26:04;6.37;;;3.60;;
69305;SDS011;56427;51.580;4.656;2023-07-29T03:28:40;6.28;;;3.90;;
69305;SDS011;56427;51.580;4.656;2023-07-29T03:31:08;5.50;;;3.30;;
69305;SDS011;56427;51.580;4.656;2023-07-29T03:33:36;7.00;;;3.50;;
69305;SDS011;56427;51.580;4.656;2023-07-29T03:36:02;8.20;;;3.63;;
69305;SDS011;56427;51.580;4.656;2023-07-29T03:38:27;7.03;;;3.53;;
69305;SDS011;56427;51.580;4.656;2023-07-29T03:40:53;6.53;;;3.53;;
69305;SDS011;56427;51.580;4.656;2023-07-29T03:43:18;8.17;;;3.87;;
69305;SDS011;56427;51.580;4.656;2023-07-29T03:45:44;6.50;;;3.10;;
69305;SDS011;56427;51.580;4.656;2023-07-29T03:48:10;6.80;;;3.55;;
69305;SDS011;56427;51.580;4.656;2023-07-29T03:50:35;6.70;;;2.90;;
69305;SDS011;56427;51.580;4.656;2023-07-29T03:53:02;7.28;;;3.53;;
69305;SDS011;56427;51.580;4.656;2023-07-29T03:55:28;6.93;;;3.15;;
69305;SDS011;56427;51.580;4.656;2023-07-29T03:57:59;7.00;;;3.20;;
69305;SDS011;56427;51.580;4.656;2023-07-29T04:00:25;6.93;;;3.28;;
69305;SDS011;56427;51.580;4.656;2023-07-29T04:02:51;8.02;;;3.25;;
69305;SDS011;56427;51.580;4.656;2023-07-29T04:05:16;6.87;;;3.00;;
69305;SDS011;56427;51.580;4.656;2023-07-29T04:07:42;5.57;;;2.90;;
69305;SDS011;56427;51.580;4.656;2023-07-29T04:10:08;7.10;;;3.42;;
69305;SDS011;56427;51.580;4.656;2023-07-29T04:12:34;7.40;;;3.72;;
69305;SDS011;56427;51.580;4.656;2023-07-29T04:14:59;6.83;;;3.30;;
69305;SDS011;56427;51.580;4.656;2023-07-29T04:17:25;5.97;;;3.00;;
69305;SDS011;56427;51.580;4.656;2023-07-29T04:19:50;6.83;;;3.27;;
69305;SDS011;56427;51.580;4.656;2023-07-29T04:22:16;7.43;;;3.15;;
69305;SDS011;56427;51.580;4.656;2023-07-29T04:24:42;5.90;;;2.97;;
69305;SDS011;56427;51.580;4.656;2023-07-29T04:27:07;7.15;;;3.45;;
69305;SDS011;56427;51.580;4.656;2023-07-29T04:29:33;8.20;;;3.23;;
69305;SDS011;56427;51.580;4.656;2023-07-29T04:32:00;8.73;;;3.50;;
69305;SDS011;56427;51.580;4.656;2023-07-29T04:34:26;5.87;;;3.20;;
69305;SDS011;56427;51.580;4.656;2023-07-29T04:36:52;8.52;;;3.28;;
69305;SDS011;56427;51.580;4.656;2023-07-29T04:39:17;7.03;;;3.40;;
69305;SDS011;56427;51.580;4.656;2023-07-29T04:41:43;6.70;;;3.37;;
69305;SDS011;56427;51.580;4.656;2023-07-29T04:44:09;8.38;;;3.13;;
69305;SDS011;56427;51.580;4.656;2023-07-29T04:46:35;6.03;;;3.20;;
69305;SDS011;56427;51.580;4.656;2023-07-29T04:49:01;7.72;;;3.42;;
69305;SDS011;56427;51.580;4.656;2023-07-29T04:51:28;7.82;;;3.75;;
69305;SDS011;56427;51.580;4.656;2023-07-29T04:53:53;7.25;;;3.08;;
69305;SDS011;56427;51.580;4.656;2023-07-29T04:56:19;5.23;;;2.90;;
69305;SDS011;56427;51.580;4.656;2023-07-29T04:58:44;7.47;;;3.30;;
69305;SDS011;56427;51.580;4.656;2023-07-29T05:01:10;6.47;;;3.00;;
69305;SDS011;56427;51.580;4.656;2023-07-29T05:03:35;4.73;;;2.87;;
69305;SDS011;56427;51.580;4.656;2023-07-29T05:06:02;6.13;;;3.00;;
69305;SDS011;56427;51.580;4.656;2023-07-29T05:08:28;6.37;;;3.20;;
69305;SDS011;56427;51.580;4.656;2023-07-29T05:10:53;5.72;;;2.70;;
69305;SDS011;56427;51.580;4.656;2023-07-29T05:13:20;5.47;;;3.20;;
69305;SDS011;56427;51.580;4.656;2023-07-29T05:15:47;6.45;;;3.15;;
69305;SDS011;56427;51.580;4.656;2023-07-29T05:18:14;7.70;;;3.13;;
69305;SDS011;56427;51.580;4.656;2023-07-29T05:20:40;6.53;;;3.53;;
69305;SDS011;56427;51.580;4.656;2023-07-29T05:23:05;7.83;;;3.13;;
69305;SDS011;56427;51.580;4.656;2023-07-29T05:25:31;6.55;;;3.30;;
69305;SDS011;56427;51.580;4.656;2023-07-29T05:27:59;7.43;;;3.28;;
69305;SDS011;56427;51.580;4.656;2023-07-29T05:30:25;5.77;;;3.60;;
69305;SDS011;56427;51.580;4.656;2023-07-29T05:32:52;6.10;;;2.92;;
69305;SDS011;56427;51.580;4.656;2023-07-29T05:35:17;7.97;;;3.80;;
69305;SDS011;56427;51.580;4.656;2023-07-29T05:37:43;7.07;;;3.60;;
69305;SDS011;56427;51.580;4.656;2023-07-29T05:40:08;7.30;;;4.13;;
69305;SDS011;56427;51.580;4.656;2023-07-29T05:42:34;7.87;;;3.47;;
69305;SDS011;56427;51.580;4.656;2023-07-29T05:45:00;7.57;;;3.40;;
69305;SDS011;56427;51.580;4.656;2023-07-29T05:47:25;5.07;;;3.17;;
69305;SDS011;56427;51.580;4.656;2023-07-29T05:49:52;6.97;;;3.27;;
69305;SDS011;56427;51.580;4.656;2023-07-29T05:52:17;6.07;;;3.22;;
69305;SDS011;56427;51.580;4.656;2023-07-29T05:54:43;6.63;;;3.57;;
69305;SDS011;56427;51.580;4.656;2023-07-29T05:57:12;5.23;;;3.10;;
69305;SDS011;56427;51.580;4.656;2023-07-29T05:59:37;6.95;;;3.17;;
69305;SDS011;56427;51.580;4.656;2023-07-29T06:02:03;6.72;;;3.42;;
69305;SDS011;56427;51.580;4.656;2023-07-29T06:04:29;8.32;;;3.60;;
69305;SDS011;56427;51.580;4.656;2023-07-29T06:06:55;6.77;;;3.40;;
69305;SDS011;56427;51.580;4.656;2023-07-29T06:09:21;6.90;;;3.40;;
69305;SDS011;56427;51.580;4.656;2023-07-29T06:11:50;8.73;;;3.40;;
69305;SDS011;56427;51.580;4.656;2023-07-29T06:14:16;6.25;;;3.40;;
69305;SDS011;56427;51.580;4.656;2023-07-29T06:16:41;8.70;;;3.40;;
69305;SDS011;56427;51.580;4.656;2023-07-29T06:19:06;5.83;;;3.23;;
69305;SDS011;56427;51.580;4.656;2023-07-29T06:21:34;7.30;;;3.50;;
69305;SDS011;56427;51.580;4.656;2023-07-29T06:23:59;8.83;;;3.33;;
69305;SDS011;56427;51.580;4.656;2023-07-29T06:26:25;8.53;;;3.73;;
69305;SDS011;56427;51.580;4.656;2023-07-29T06:28:50;6.10;;;3.07;;
69305;SDS011;56427;51.580;4.656;2023-07-29T06:31:15;8.73;;;3.50;;
69305;SDS011;56427;51.580;4.656;2023-07-29T06:33:42;5.93;;;3.17;;
69305;SDS011;56427;51.580;4.656;2023-07-29T06:36:08;6.20;;;3.03;;
69305;SDS011;56427;51.580;4.656;2023-07-29T06:38:33;9.18;;;3.45;;
69305;SDS011;56427;51.580;4.656;2023-07-29T06:40:59;4.90;;;2.73;;
69305;SDS011;56427;51.580;4.656;2023-07-29T06:43:24;5.57;;;3.07;;
69305;SDS011;56427;51.580;4.656;2023-07-29T06:45:50;5.22;;;2.70;;
69305;SDS011;56427;51.580;4.656;2023-07-29T06:48:15;8.17;;;2.90;;
69305;SDS011;56427;51.580;4.656;2023-07-29T06:50:41;4.93;;;2.80;;
69305;SDS011;56427;51.580;4.656;2023-07-29T06:53:06;6.90;;;3.00;;
69305;SDS011;56427;51.580;4.656;2023-07-29T06:55:32;5.27;;;3.10;;
69305;SDS011;56427;51.580;4.656;2023-07-29T06:57:57;5.73;;;2.77;;
69305;SDS011;56427;51.580;4.656;2023-07-29T07:00:22;7.27;;;3.13;;
69305;SDS011;56427;51.580;4.656;2023-07-29T07:02:48;7.88;;;3.13;;
69305;SDS011;56427;51.580;4.656;2023-07-29T07:05:14;8.67;;;3.30;;
69305;SDS011;56427;51.580;4.656;2023-07-29T07:07:39;8.50;;;2.83;;
69305;SDS011;56427;51.580;4.656;2023-07-29T07:10:05;6.40;;;3.17;;
69305;SDS011;56427;51.580;4.656;2023-07-29T07:12:30;5.83;;;3.00;;
69305;SDS011;56427;51.580;4.656;2023-07-29T07:14:56;5.40;;;2.58;;
69305;SDS011;56427;51.580;4.656;2023-07-29T07:17:21;6.03;;;2.63;;
69305;SDS011;56427;51.580;4.656;2023-07-29T07:19:47;6.43;;;2.57;;
69305;SDS011;56427;51.580;4.656;2023-07-29T07:22:12;6.50;;;2.80;;
69305;SDS011;56427;51.580;4.656;2023-07-29T07:24:38;7.13;;;2.60;;
69305;SDS011;56427;51.580;4.656;2023-07-29T07:27:03;7.50;;;2.70;;
69305;SDS011;56427;51.580;4.656;2023-07-29T07:29:29;4.90;;;2.20;;
69305;SDS011;56427;51.580;4.656;2023-07-29T07:31:55;5.13;;;2.55;;
69305;SDS011;56427;51.580;4.656;2023-07-29T07:34:21;5.40;;;2.55;;
69305;SDS011;56427;51.580;4.656;2023-07-29T07:36:47;4.93;;;2.70;;
69305;SDS011;56427;51.580;4.656;2023-07-29T07:39:13;7.57;;;2.40;;
69305;SDS011;56427;51.580;4.656;2023-07-29T07:41:39;4.57;;;2.60;;
69305;SDS011;56427;51.580;4.656;2023-07-29T07:44:05;7.18;;;2.55;;
69305;SDS011;56427;51.580;4.656;2023-07-29T07:46:31;4.47;;;2.50;;
69305;SDS011;56427;51.580;4.656;2023-07-29T07:48:56;4.77;;;2.47;;
69305;SDS011;56427;51.580;4.656;2023-07-29T07:51:22;4.10;;;2.07;;
69305;SDS011;56427;51.580;4.656;2023-07-29T07:53:48;6.35;;;2.40;;
69305;SDS011;56427;51.580;4.656;2023-07-29T07:56:15;4.47;;;2.40;;
69305;SDS011;56427;51.580;4.656;2023-07-29T07:58:40;4.22;;;2.25;;
69305;SDS011;56427;51.580;4.656;2023-07-29T08:01:06;4.97;;;2.38;;
69305;SDS011;56427;51.580;4.656;2023-07-29T08:03:33;6.55;;;2.63;;
69305;SDS011;56427;51.580;4.656;2023-07-29T08:06:00;5.80;;;2.40;;
69305;SDS011;56427;51.580;4.656;2023-07-29T08:08:25;5.25;;;2.42;;
69305;SDS011;56427;51.580;4.656;2023-07-29T08:10:54;5.03;;;2.63;;
69305;SDS011;56427;51.580;4.656;2023-07-29T08:13:23;6.57;;;2.70;;
69305;SDS011;56427;51.580;4.656;2023-07-29T08:15:51;4.30;;;2.03;;
69305;SDS011;56427;51.580;4.656;2023-07-29T08:18:17;5.82;;;2.30;;
69305;SDS011;56427;51.580;4.656;2023-07-29T08:20:56;6.80;;;2.70;;
69305;SDS011;56427;51.580;4.656;2023-07-29T08:23:29;6.63;;;2.78;;
69305;SDS011;56427;51.580;4.656;2023-07-29T08:25:59;4.50;;;2.43;;
69305;SDS011;56427;51.580;4.656;2023-07-29T08:28:36;4.97;;;2.38;;
69305;SDS011;56427;51.580;4.656;2023-07-29T08:31:03;5.53;;;2.80;;
69305;SDS011;56427;51.580;4.656;2023-07-29T08:33:30;5.80;;;2.35;;
69305;SDS011;56427;51.580;4.656;2023-07-29T08:35:57;4.50;;;2.50;;
69305;SDS011;56427;51.580;4.656;2023-07-29T08:38:24;4.67;;;1.90;;
69305;SDS011;56427;51.580;4.656;2023-07-29T08:40:52;3.67;;;1.92;;
69305;SDS011;56427;51.580;4.656;2023-07-29T08:43:22;5.70;;;2.00;;
69305;SDS011;56427;51.580;4.656;2023-07-29T08:45:55;5.30;;;1.95;;
69305;SDS011;56427;51.580;4.656;2023-07-29T08:48:23;5.43;;;1.73;;
69305;SDS011;56427;51.580;4.656;2023-07-29T08:51:05;3.90;;;1.50;;
69305;SDS011;56427;51.580;4.656;2023-07-29T08:53:34;6.95;;;1.70;;
69305;SDS011;56427;51.580;4.656;2023-07-29T08:56:00;3.47;;;1.70;;
69305;SDS011;56427;51.580;4.656;2023-07-29T08:58:26;4.18;;;1.80;;
69305;SDS011;56427;51.580;4.656;2023-07-29T09:00:52;4.68;;;1.80;;
69305;SDS011;56427;51.580;4.656;2023-07-29T09:03:19;3.92;;;1.48;;
69305;SDS011;56427;51.580;4.656;2023-07-29T09:05:45;4.13;;;1.55;;
69305;SDS011;56427;51.580;4.656;2023-07-29T09:08:14;4.40;;;1.80;;
69305;SDS011;56427;51.580;4.656;2023-07-29T09:10:39;4.93;;;1.80;;
69305;SDS011;56427;51.580;4.656;2023-07-29T09:13:06;3.88;;;2.15;;
69305;SDS011;56427;51.580;4.656;2023-07-29T09:15:33;5.15;;;1.58;;
69305;SDS011;56427;51.580;4.656;2023-07-29T09:18:10;3.67;;;1.55;;
69305;SDS011;56427;51.580;4.656;2023-07-29T09:20:43;4.00;;;1.70;;
69305;SDS011;56427;51.580;4.656;2023-07-29T09:23:10;5.55;;;2.20;;
69305;SDS011;56427;51.580;4.656;2023-07-29T09:25:36;6.03;;;2.73;;
69305;SDS011;56427;51.580;4.656;2023-07-29T09:28:07;6.03;;;3.03;;
69305;SDS011;56427;51.580;4.656;2023-07-29T09:30:40;3.92;;;2.10;;
69305;SDS011;56427;51.580;4.656;2023-07-29T09:33:10;4.85;;;2.00;;
69305;SDS011;56427;51.580;4.656;2023-07-29T09:35:36;3.50;;;1.53;;
69305;SDS011;56427;51.580;4.656;2023-07-29T09:38:03;3.42;;;1.60;;
69305;SDS011;56427;51.580;4.656;2023-07-29T09:40:39;3.13;;;1.80;;
69305;SDS011;56427;51.580;4.656;2023-07-29T09:43:06;4.50;;;2.20;;
69305;SDS011;56427;51.580;4.656;2023-07-29T09:45:35;3.53;;;2.00;;
69305;SDS011;56427;51.580;4.656;2023-07-29T09:48:02;4.35;;;2.05;;
69305;SDS011;56427;51.580;4.656;2023-07-29T09:50:30;5.82;;;2.50;;
69305;SDS011;56427;51.580;4.656;2023-07-29T09:52:56;5.55;;;2.10;;
69305;SDS011;56427;51.580;4.656;2023-07-29T09:55:25;5.38;;;2.42;;
69305;SDS011;56427;51.580;4.656;2023-07-29T09:57:59;4.90;;;2.07;;
69305;SDS011;56427;51.580;4.656;2023-07-29T10:00:29;3.95;;;2.50;;
69305;SDS011;56427;51.580;4.656;2023-07-29T10:02:57;3.47;;;2.17;;
69305;SDS011;56427;51.580;4.656;2023-07-29T10:05:23;6.53;;;2.45;;
69305;SDS011;56427;51.580;4.656;2023-07-29T10:07:50;4.32;;;2.17;;
69305;SDS011;56427;51.580;4.656;2023-07-29T10:10:17;3.37;;;2.03;;
69305;SDS011;56427;51.580;4.656;2023-07-29T10:12:46;5.80;;;2.13;;
69305;SDS011;56427;51.580;4.656;2023-07-29T10:15:11;4.93;;;2.28;;
69305;SDS011;56427;51.580;4.656;2023-07-29T10:17:38;5.30;;;2.50;;
69305;SDS011;56427;51.580;4.656;2023-07-29T10:20:04;7.38;;;2.53;;
69305;SDS011;56427;51.580;4.656;2023-07-29T10:22:41;4.63;;;2.70;;
69305;SDS011;56427;51.580;4.656;2023-07-29T10:25:18;5.40;;;2.55;;
69305;SDS011;56427;51.580;4.656;2023-07-29T10:27:47;5.75;;;2.45;;
69305;SDS011;56427;51.580;4.656;2023-07-29T10:30:17;5.77;;;2.60;;
69305;SDS011;56427;51.580;4.656;2023-07-29T10:32:43;5.50;;;2.63;;
69305;SDS011;56427;51.580;4.656;2023-07-29T10:35:13;5.15;;;2.63;;
69305;SDS011;56427;51.580;4.656;2023-07-29T10:37:39;6.07;;;3.00;;
69305;SDS011;56427;51.580;4.656;2023-07-29T10:40:06;4.90;;;3.00;;
69305;SDS011;56427;51.580;4.656;2023-07-29T10:42:34;8.10;;;3.40;;
69305;SDS011;56427;51.580;4.656;2023-07-29T10:45:00;17.10;;;5.43;;
69305;SDS011;56427;51.580;4.656;2023-07-29T10:47:26;6.73;;;4.57;;
69305;SDS011;56427;51.580;4.656;2023-07-29T10:49:56;6.13;;;3.95;;
69305;SDS011;56427;51.580;4.656;2023-07-29T10:52:30;9.48;;;4.95;;
69305;SDS011;56427;51.580;4.656;2023-07-29T10:55:04;8.32;;;4.90;;
69305;SDS011;56427;51.580;4.656;2023-07-29T10:57:49;13.85;;;6.43;;
69305;SDS011;56427;51.580;4.656;2023-07-29T11:00:15;8.77;;;5.80;;
69305;SDS011;56427;51.580;4.656;2023-07-29T11:02:40;7.47;;;4.90;;
69305;SDS011;56427;51.580;4.656;2023-07-29T11:05:07;5.70;;;2.85;;
69305;SDS011;56427;51.580;4.656;2023-07-29T11:07:45;6.70;;;3.17;;
69305;SDS011;56427;51.580;4.656;2023-07-29T11:10:12;7.90;;;4.10;;
69305;SDS011;56427;51.580;4.656;2023-07-29T11:12:45;7.57;;;3.28;;
69305;SDS011;56427;51.580;4.656;2023-07-29T11:15:14;10.02;;;3.67;;
69305;SDS011;56427;51.580;4.656;2023-07-29T11:17:46;6.20;;;3.00;;
69305;SDS011;56427;51.580;4.656;2023-07-29T11:20:15;6.80;;;3.30;;
69305;SDS011;56427;51.580;4.656;2023-07-29T11:22:41;5.88;;;3.90;;
69305;SDS011;56427;51.580;4.656;2023-07-29T11:25:08;9.10;;;4.30;;
69305;SDS011;56427;51.580;4.656;2023-07-29T11:27:35;7.72;;;4.45;;
69305;SDS011;56427;51.580;4.656;2023-07-29T11:30:01;7.93;;;4.73;;
69305;SDS011;56427;51.580;4.656;2023-07-29T11:32:30;7.43;;;4.47;;
69305;SDS011;56427;51.580;4.656;2023-07-29T11:34:56;7.82;;;4.15;;
69305;SDS011;56427;51.580;4.656;2023-07-29T11:37:22;7.57;;;4.17;;
69305;SDS011;56427;51.580;4.656;2023-07-29T11:39:48;11.40;;;5.68;;
69305;SDS011;56427;51.580;4.656;2023-07-29T11:42:14;14.97;;;6.37;;
69305;SDS011;56427;51.580;4.656;2023-07-29T11:44:40;9.77;;;5.78;;
69305;SDS011;56427;51.580;4.656;2023-07-29T11:47:09;10.27;;;6.35;;
69305;SDS011;56427;51.580;4.656;2023-07-29T11:49:40;11.97;;;6.77;;
69305;SDS011;56427;51.580;4.656;2023-07-29T11:52:08;15.73;;;7.45;;
69305;SDS011;56427;51.580;4.656;2023-07-29T11:54:37;17.80;;;8.10;;
69305;SDS011;56427;51.580;4.656;2023-07-29T11:57:07;12.70;;;7.15;;
69305;SDS011;56427;51.580;4.656;2023-07-29T11:59:34;9.50;;;6.22;;
69305;SDS011;56427;51.580;4.656;2023-07-29T12:02:01;9.87;;;6.57;;
69305;SDS011;56427;51.580;4.656;2023-07-29T12:04:30;14.70;;;7.00;;
69305;SDS011;56427;51.580;4.656;2023-07-29T12:07:00;12.63;;;6.85;;
69305;SDS011;56427;51.580;4.656;2023-07-29T12:09:27;13.20;;;6.68;;
69305;SDS011;56427;51.580;4.656;2023-07-29T12:11:53;12.00;;;5.95;;
69305;SDS011;56427;51.580;4.656;2023-07-29T12:14:19;10.67;;;6.20;;
69305;SDS011;56427;51.580;4.656;2023-07-29T12:16:50;9.48;;;4.90;;
69305;SDS011;56427;51.580;4.656;2023-07-29T12:19:17;8.18;;;4.20;;
69305;SDS011;56427;51.580;4.656;2023-07-29T12:21:43;8.20;;;3.70;;
69305;SDS011;56427;51.580;4.656;2023-07-29T12:24:09;4.78;;;2.60;;
69305;SDS011;56427;51.580;4.656;2023-07-29T12:26:37;6.15;;;2.85;;
69305;SDS011;56427;51.580;4.656;2023-07-29T12:29:16;5.53;;;2.90;;
69305;SDS011;56427;51.580;4.656;2023-07-29T12:31:44;4.63;;;2.70;;
69305;SDS011;56427;51.580;4.656;2023-07-29T12:34:16;8.55;;;2.67;;
69305;SDS011;56427;51.580;4.656;2023-07-29T12:39:19;6.95;;;3.47;;
69305;SDS011;56427;51.580;4.656;2023-07-29T12:41:47;4.60;;;3.40;;
69305;SDS011;56427;51.580;4.656;2023-07-29T12:44:13;5.70;;;3.60;;
69305;SDS011;56427;51.580;4.656;2023-07-29T12:46:39;7.53;;;3.78;;
69305;SDS011;56427;51.580;4.656;2023-07-29T12:49:06;5.43;;;3.30;;
69305;SDS011;56427;51.580;4.656;2023-07-29T12:51:32;4.73;;;3.20;;
69305;SDS011;56427;51.580;4.656;2023-07-29T12:53:57;5.45;;;3.70;;
69305;SDS011;56427;51.580;4.656;2023-07-29T12:56:23;4.33;;;3.20;;
69305;SDS011;56427;51.580;4.656;2023-07-29T12:58:48;6.00;;;3.83;;
69305;SDS011;56427;51.580;4.656;2023-07-29T13:01:15;8.27;;;3.92;;
69305;SDS011;56427;51.580;4.656;2023-07-29T13:03:44;5.32;;;3.83;;
69305;SDS011;56427;51.580;4.656;2023-07-29T13:06:10;6.30;;;3.80;;
69305;SDS011;56427;51.580;4.656;2023-07-29T13:08:35;5.25;;;4.10;;
69305;SDS011;56427;51.580;4.656;2023-07-29T13:11:01;3.67;;;3.00;;
69305;SDS011;56427;51.580;4.656;2023-07-29T13:13:27;4.15;;;3.20;;
69305;SDS011;56427;51.580;4.656;2023-07-29T13:15:52;6.53;;;3.20;;
69305;SDS011;56427;51.580;4.656;2023-07-29T13:18:18;5.43;;;2.87;;
69305;SDS011;56427;51.580;4.656;2023-07-29T13:20:43;6.43;;;4.15;;
69305;SDS011;56427;51.580;4.656;2023-07-29T13:23:09;4.07;;;3.07;;
69305;SDS011;56427;51.580;4.656;2023-07-29T13:25:36;7.25;;;3.22;;
69305;SDS011;56427;51.580;4.656;2023-07-29T13:28:02;4.73;;;3.20;;
69305;SDS011;56427;51.580;4.656;2023-07-29T13:30:27;7.37;;;4.60;;
69305;SDS011;56427;51.580;4.656;2023-07-29T13:32:53;4.10;;;2.93;;
69305;SDS011;56427;51.580;4.656;2023-07-29T13:35:18;4.88;;;3.25;;
69305;SDS011;56427;51.580;4.656;2023-07-29T13:37:43;6.00;;;3.60;;
69305;SDS011;56427;51.580;4.656;2023-07-29T13:40:10;3.83;;;2.80;;
69305;SDS011;56427;51.580;4.656;2023-07-29T13:42:35;4.87;;;2.73;;
69305;SDS011;56427;51.580;4.656;2023-07-29T13:45:01;3.33;;;2.63;;
69305;SDS011;56427;51.580;4.656;2023-07-29T13:47:27;5.93;;;2.70;;
69305;SDS011;56427;51.580;4.656;2023-07-29T13:49:53;5.75;;;3.20;;
69305;SDS011;56427;51.580;4.656;2023-07-29T13:52:18;4.33;;;2.70;;
69305;SDS011;56427;51.580;4.656;2023-07-29T13:54:43;4.50;;;3.03;;
69305;SDS011;56427;51.580;4.656;2023-07-29T13:57:09;4.53;;;2.70;;
69305;SDS011;56427;51.580;4.656;2023-07-29T13:59:35;4.80;;;2.33;;
69305;SDS011;56427;51.580;4.656;2023-07-29T14:02:03;3.53;;;2.15;;
69305;SDS011;56427;51.580;4.656;2023-07-29T14:04:30;4.28;;;2.17;;
69305;SDS011;56427;51.580;4.656;2023-07-29T14:06:55;7.07;;;2.50;;
69305;SDS011;56427;51.580;4.656;2023-07-29T14:09:21;4.20;;;2.30;;
69305;SDS011;56427;51.580;4.656;2023-07-29T14:11:47;4.03;;;2.40;;
69305;SDS011;56427;51.580;4.656;2023-07-29T14:14:12;5.47;;;2.33;;
69305;SDS011;56427;51.580;4.656;2023-07-29T14:16:37;4.30;;;2.80;;
69305;SDS011;56427;51.580;4.656;2023-07-29T14:19:04;3.97;;;2.53;;
69305;SDS011;56427;51.580;4.656;2023-07-29T14:21:30;4.45;;;3.00;;
69305;SDS011;56427;51.580;4.656;2023-07-29T14:23:56;4.80;;;3.00;;
69305;SDS011;56427;51.580;4.656;2023-07-29T14:26:23;5.00;;;3.10;;
69305;SDS011;56427;51.580;4.656;2023-07-29T14:28:48;5.60;;;3.13;;
69305;SDS011;56427;51.580;4.656;2023-07-29T14:31:15;5.05;;;2.92;;
69305;SDS011;56427;51.580;4.656;2023-07-29T14:33:42;4.73;;;2.80;;
69305;SDS011;56427;51.580;4.656;2023-07-29T14:36:07;6.88;;;3.22;;
69305;SDS011;56427;51.580;4.656;2023-07-29T14:38:35;7.18;;;3.45;;
69305;SDS011;56427;51.580;4.656;2023-07-29T14:41:01;11.35;;;4.82;;
69305;SDS011;56427;51.580;4.656;2023-07-29T14:43:26;17.73;;;6.67;;
69305;SDS011;56427;51.580;4.656;2023-07-29T14:45:53;11.18;;;5.72;;
69305;SDS011;56427;51.580;4.656;2023-07-29T14:48:19;10.37;;;5.60;;
69305;SDS011;56427;51.580;4.656;2023-07-29T14:50:44;8.30;;;5.30;;